Sunday, May 27, 2018, 11:46 AM EDT

KNHK, Nas Patuxent River Md

Location: Patuxent River, MD, United States Lat: 38.3
Local Time: 11:46 AM EDT (15:46 GMT) Lon: -76.4
Time Zone: US/Eastern Elev: 39 ft

Show me the last for .
Show Decoded

2018-05-27 10:52 METAR KNHK 271452Z 22010KT 10SM BKN016 BKN027 BKN160 28/22 A2994 RMK AO2 SLP138
                 T02830217 51007 =
2018-05-27 09:52 METAR KNHK 271352Z 24007KT 10SM BKN015 BKN025 27/22 A2993 RMK AO2 SLP136
                 T02670217 =
2018-05-27 08:52 METAR KNHK 271252Z 25009KT 10SM SCT014 BKN024 BKN160 26/22 A2993 RMK AO2 SLP134
                 T02610217 =
2018-05-27 07:52 METAR KNHK 271152Z 22007KT 10SM FEW013 SCT025 BKN160 26/22 A2992 RMK AO2 SLP131
                 60002 70002 T02560217 10261 20239 53012 =
2018-05-27 06:52 METAR KNHK 271052Z AUTO 22009KT 10SM CLR 24/22 A2991 RMK AO2 SLP127 T02440217 =
2018-05-27 05:52 METAR KNHK 270952Z AUTO 20006KT 10SM BKN017 24/22 A2989 RMK AO2 SLP122 T02440217
                 =
2018-05-27 05:19 METAR KNHK 270919Z AUTO 22006KT 10SM BKN017 24/22 A2989 RMK AO2 T02440217 =
2018-05-27 03:52 METAR KNHK 270752Z AUTO 22004KT 10SM SCT041 SCT050 SCT085 25/22 A2989 RMK AO2
                 SLP121 T02500217 =
2018-05-27 02:52 METAR KNHK 270652Z AUTO 20006KT 10SM SCT046 SCT060 BKN120 25/22 A2988 RMK AO2
                 RAB19E30 SLP118 P0000 T02500217 =
2018-05-27 01:52 METAR KNHK 270552Z AUTO 20010KT 10SM SCT060 BKN075 26/21 A2989 RMK AO2 SLP122
                 T02610211 10294 20261 55003 =
2018-05-27 00:52 METAR KNHK 270452Z AUTO 21006KT 10SM SCT070 BKN110 27/21 A2989 RMK AO2 SLP122
                 T02670211 403330239 =
2018-05-26 23:52 METAR KNHK 270352Z AUTO 19003KT 10SM BKN110 26/21 A2989 RMK AO2 SLP123 T02610211
                 =
2018-05-26 22:52 METAR KNHK 270252Z AUTO 00000KT 10SM FEW048 SCT065 27/21 A2990 RMK AO2 SLP125
                 T02670211 51018 =
2018-05-26 21:52 METAR KNHK 270152Z AUTO 10SM CLR 27/22 A2989 RMK AO2 SLP121 T02670217 =
2018-05-26 20:52 METAR KNHK 270052Z AUTO 23005KT 10SM BKN110 28/21 A2987 RMK AO2 SLP114 T02780211
                 =
2018-05-26 19:52 METAR KNHK 262352Z AUTO 22007KT 10SM CLR 29/21 A2985 RMK AO2 TSB02E17 SLP107
                 T02940211 10333 20289 51007 =
2018-05-26 19:23 METAR KNHK 262323Z AUTO 21006KT 10SM CLR 29/21 A2985 RMK AO2 TSB02E17 T02940211
                 =
2018-05-26 18:52 METAR KNHK 262252Z AUTO 20005KT 10SM TS CLR 30/22 A2985 RMK AO2 TSB27B28B47
                 SLP107 T03000217 =
2018-05-26 18:33 METAR KNHK 262233Z AUTO 21007KT 10SM TS CLR 31/22 A2984 RMK AO2 TSB27B28
                 T03060217 =
2018-05-26 17:52 METAR KNHK 262152Z 22008KT 10SM SCT040TCU SCT120 BKN280 32/22 A2983 RMK AO2
                 SLP102 TCU W-NW CB DSNT W T2 SET T03170217 =
2018-05-26 16:52 METAR KNHK 262052Z 24009KT 10SM FEW045 SCT120 BKN280 33/22 A2983 RMK AO2 SLP100
                 CB DSNT N T2 SET T03280217 56010 =
2018-05-26 15:52 METAR KNHK 261952Z 24009KT 10SM SCT040 SCT280 33/21 A2983 RMK AO2 SLP101 CB DSNT
                 NW T03280206 =
2018-05-26 14:52 METAR KNHK 261852Z 23009G17KT 10SM FEW040 SCT280 33/21 A2984 RMK AO2 SLP105 CB
                 DSNT NW T03280206 =
2018-05-26 13:52 METAR KNHK 261752Z 24012G19KT 10SM FEW035 FEW120 SCT280 33/21 A2986 RMK AO2
                 SLP110 TCU DSNT NW T03280206 10328 20261 58013 =
2018-05-26 12:52 METAR KNHK 261652Z 21011KT 10SM FEW040 FEW120 SCT280 32/21 A2987 RMK AO2 SLP116
                 T03220211 =
2018-05-26 11:52 METAR KNHK 261552Z 24012KT 10SM FEW040 FEW120 SCT280 32/21 A2988 RMK AO2 SLP120
                 T03170211 =

Support USWX by starting your Amazon purchase here.